Time;durP1;ratioP1;P1;durP2;ratioP2;P2;SDS_P1;SDS_P2;PMS_P1;PMS_P2;Temp;Humidity;BMP_temperature;BMP_pressure;BME280_temperature;BME280_humidity;BME280_pressure;Samples;Min_cycle;Max_cycle;Signal;HPM_P1;HPM_P2
2021/12/09 00:00:26;;;;;;;;;;;2.20;99.90;;;;;;5020697;28;20381;-86
2021/12/09 00:02:57;;;;;;;;;;;2.20;99.90;;;;;;5020100;28;19971;-86
2021/12/09 00:05:23;;;;;;;;;;;2.30;99.90;;;;;;5002885;28;19925;-86
2021/12/09 00:07:51;;;;;;;;;;;2.30;99.90;;;;;;5002448;28;20281;-86
2021/12/09 00:10:17;;;;;;;;;;;2.20;99.90;;;;;;5018785;28;20336;-87
2021/12/09 00:12:45;;;;;;;;;;;2.20;99.90;;;;;;5002511;28;19929;-86
2021/12/09 00:15:13;;;;;;;;;;;2.10;99.90;;;;;;5001989;28;19925;-87
2021/12/09 00:17:39;;;;;;;;;;;2.20;99.90;;;;;;5018720;28;19929;-86
2021/12/09 00:20:15;;;;;;;;;;;2.10;99.90;;;;;;5002698;28;20024;-87
2021/12/09 00:22:41;;;;;;;;;;;2.20;99.90;;;;;;5003121;28;20289;-87
2021/12/09 00:25:07;;;;;;;;;;;2.10;99.90;;;;;;5018922;28;19933;-87
2021/12/09 00:27:38;;;;;;;;;;;2.20;99.90;;;;;;5001354;28;19925;-86
2021/12/09 00:30:10;;;;;;;;;;;2.20;99.90;;;;;;5035238;28;20277;-86
2021/12/09 00:32:45;;;;;;;;;;;2.10;99.90;;;;;;5001685;28;20007;-86
2021/12/09 00:35:26;;;;;;;;;;;2.10;99.90;;;;;;5018412;28;19965;-87
2021/12/09 00:38:12;;;;;;;;;;;2.10;99.90;;;;;;5002932;28;20020;-86
2021/12/09 00:40:41;;;;;;;;;;;2.00;99.90;;;;;;5002550;28;19929;-86
2021/12/09 00:43:09;;;;;;;;;;;2.10;99.90;;;;;;5018346;28;20047;-86
2021/12/09 00:45:37;;;;;;;;;;;2.00;99.90;;;;;;5017943;28;19936;-87
2021/12/09 00:48:05;;;;;;;;;;;1.90;99.90;;;;;;5002514;28;19924;-86
2021/12/09 00:50:30;;;;;;;;;;;1.90;99.90;;;;;;5002034;28;20015;-87
2021/12/09 00:53:04;;;;;;;;;;;1.90;99.90;;;;;;5002467;28;19932;-86
2021/12/09 00:55:32;;;;;;;;;;;1.80;99.90;;;;;;5017666;28;19925;-87
2021/12/09 00:58:00;;;;;;;;;;;1.80;99.90;;;;;;5018504;28;19925;-86
2021/12/09 01:00:26;;;;;;;;;;;1.80;99.90;;;;;;5001645;28;20015;-86
2021/12/09 01:02:56;;;;;;;;;;;1.70;99.90;;;;;;5001639;28;20443;-87
2021/12/09 01:05:22;;;;;;;;;;;1.70;99.90;;;;;;5018022;28;19964;-86
2021/12/09 01:07:50;;;;;;;;;;;1.70;99.90;;;;;;5017886;28;19975;-87
2021/12/09 01:10:36;;;;;;;;;;;1.70;99.90;;;;;;5017723;28;20026;-87
2021/12/09 01:13:11;;;;;;;;;;;1.60;99.90;;;;;;5001372;28;19964;-87
2021/12/09 01:15:44;;;;;;;;;;;1.60;99.90;;;;;;5018461;28;19929;-87
2021/12/09 01:18:17;;;;;;;;;;;1.70;99.90;;;;;;5002571;28;19926;-86
2021/12/09 01:20:43;;;;;;;;;;;1.70;99.90;;;;;;5017451;28;19931;-86
2021/12/09 01:23:09;;;;;;;;;;;1.60;99.90;;;;;;5001413;28;19925;-86
2021/12/09 01:25:38;;;;;;;;;;;1.70;99.90;;;;;;5016525;28;19929;-86
2021/12/09 01:28:31;;;;;;;;;;;1.60;99.90;;;;;;5002321;28;19925;-86
2021/12/09 01:31:24;;;;;;;;;;;1.60;99.90;;;;;;5002905;28;19925;-86
2021/12/09 01:33:59;;;;;;;;;;;;;;;;;;;;;
2021/12/09 01:36:47;;;;;;;;;;;1.50;99.90;;;;;;5019037;28;19936;-87
2021/12/09 01:39:13;;;;;;;;;;;1.50;99.90;;;;;;5017419;28;20011;-86
2021/12/09 01:41:41;;;;;;;;;;;1.50;99.90;;;;;;5000837;28;20012;-86
2021/12/09 01:44:07;;;;;;;;;;;1.50;99.90;;;;;;5001436;28;19931;-87
2021/12/09 01:46:32;;;;;;;;;;;1.60;99.90;;;;;;5000534;28;20356;-86
2021/12/09 01:49:00;;;;;;;;;;;1.60;99.90;;;;;;5001034;28;20012;-86
2021/12/09 01:51:31;;;;;;;;;;;1.50;99.90;;;;;;5000927;28;19979;-87
2021/12/09 01:54:02;;;;;;;;;;;1.60;99.90;;;;;;5018090;28;19967;-86
2021/12/09 01:56:30;;;;;;;;;;;1.60;99.90;;;;;;5000076;28;19969;-86
2021/12/09 01:59:02;;;;;;;;;;;1.60;99.90;;;;;;5001127;28;19972;-86
2021/12/09 02:01:28;;;;;;;;;;;1.60;99.90;;;;;;5000750;28;19929;-86
2021/12/09 02:03:56;;;;;;;;;;;1.60;99.90;;;;;;5016950;28;20415;-86
2021/12/09 02:06:37;;;;;;;;;;;1.50;99.90;;;;;;5000506;28;19925;-86
2021/12/09 02:09:02;;;;;;;;;;;1.50;99.90;;;;;;5001324;28;19925;-86
2021/12/09 02:11:28;;;;;;;;;;;1.50;99.90;;;;;;5000000;28;19929;-87
2021/12/09 02:14:13;;;;;;;;;;;1.60;99.90;;;;;;5000121;28;19929;-86
2021/12/09 02:16:48;;;;;;;;;;;;;;;;;;;;;
2021/12/09 02:19:15;;;;;;;;;;;1.60;99.90;;;;;;5017852;28;19951;-86
2021/12/09 02:21:50;;;;;;;;;;;1.60;99.90;;;;;;4999644;28;19925;-86
2021/12/09 02:24:17;;;;;;;;;;;1.60;99.90;;;;;;5000580;28;19932;-86
2021/12/09 02:26:49;;;;;;;;;;;1.60;99.90;;;;;;5000203;28;19979;-86
2021/12/09 02:29:15;;;;;;;;;;;1.70;99.90;;;;;;5016955;28;19936;-86
2021/12/09 02:31:55;;;;;;;;;;;;;;;;;;;;;
2021/12/09 02:34:22;;;;;;;;;;;1.60;99.90;;;;;;5018103;28;19925;-86
2021/12/09 02:36:55;;;;;;;;;;;1.60;99.90;;;;;;4999705;28;19925;-86
2021/12/09 02:39:28;;;;;;;;;;;1.70;99.90;;;;;;5017508;28;19925;-86
2021/12/09 02:41:56;;;;;;;;;;;1.70;99.90;;;;;;5000634;28;19925;-86
2021/12/09 02:44:27;;;;;;;;;;;1.70;99.90;;;;;;5001044;28;19929;-86
2021/12/09 02:46:58;;;;;;;;;;;1.70;99.90;;;;;;5015677;28;20381;-86
2021/12/09 02:49:46;;;;;;;;;;;1.60;99.90;;;;;;5001294;28;19932;-87
2021/12/09 02:52:15;;;;;;;;;;;1.50;99.90;;;;;;5016589;28;19983;-86
2021/12/09 02:54:43;;;;;;;;;;;1.50;99.90;;;;;;4999381;28;19925;-86
2021/12/09 02:57:14;;;;;;;;;;;1.50;99.90;;;;;;4999726;28;19979;-86
2021/12/09 02:59:45;;;;;;;;;;;1.50;99.90;;;;;;4999701;28;19925;-86
2021/12/09 03:02:18;;;;;;;;;;;1.50;99.90;;;;;;5016455;28;19956;-86
2021/12/09 03:04:46;;;;;;;;;;;1.50;99.90;;;;;;5000260;28;19929;-86
2021/12/09 03:07:29;;;;;;;;;;;1.50;99.90;;;;;;5016365;28;19936;-86
2021/12/09 03:10:16;;;;;;;;;;;1.50;99.90;;;;;;5017805;28;20395;-86
2021/12/09 03:12:44;;;;;;;;;;;1.50;99.90;;;;;;4999844;28;20380;-86
2021/12/09 03:15:12;;;;;;;;;;;1.40;99.90;;;;;;4999883;28;19975;-86
2021/12/09 03:17:39;;;;;;;;;;;1.40;99.90;;;;;;5015733;28;19925;-86
2021/12/09 03:20:09;;;;;;;;;;;1.40;99.90;;;;;;4999540;28;19929;-87
2021/12/09 03:22:39;;;;;;;;;;;1.40;99.90;;;;;;4999886;28;20075;-87
2021/12/09 03:25:26;;;;;;;;;;;1.50;99.90;;;;;;4999462;28;19929;-87
2021/12/09 03:27:54;;;;;;;;;;;1.40;99.90;;;;;;5000059;28;19931;-87
2021/12/09 03:30:27;;;;;;;;;;;1.50;99.90;;;;;;4999328;28;19925;-87
2021/12/09 03:32:55;;;;;;;;;;;1.40;99.90;;;;;;4999348;28;19932;-86
2021/12/09 03:35:20;;;;;;;;;;;1.40;99.90;;;;;;4999490;28;19925;-86
2021/12/09 03:37:48;;;;;;;;;;;1.40;99.90;;;;;;4998212;28;19987;-87
2021/12/09 03:40:26;;;;;;;;;;;;;;;;;;;;;
2021/12/09 03:43:00;;;;;;;;;;;1.40;99.90;;;;;;5016638;28;19925;-87
2021/12/09 03:45:36;;;;;;;;;;;1.30;99.90;;;;;;5032049;28;19932;-87
2021/12/09 03:48:07;;;;;;;;;;;1.40;99.90;;;;;;5015484;28;19925;-86
2021/12/09 03:50:43;;;;;;;;;;;;;;;;;;;;;
2021/12/09 03:53:12;;;;;;;;;;;1.40;99.90;;;;;;5016768;28;20343;-87
2021/12/09 03:55:40;;;;;;;;;;;1.40;99.90;;;;;;5015600;28;19929;-87
2021/12/09 03:58:10;;;;;;;;;;;1.30;99.90;;;;;;4999055;28;19968;-87
2021/12/09 04:00:41;;;;;;;;;;;1.30;99.90;;;;;;5015821;28;20020;-87
2021/12/09 04:03:17;;;;;;;;;;;1.40;99.90;;;;;;4999948;28;20457;-86
2021/12/09 04:05:49;;;;;;;;;;;1.30;99.90;;;;;;5000126;28;19932;-86
2021/12/09 04:08:17;;;;;;;;;;;1.30;99.90;;;;;;4999232;28;20257;-86
2021/12/09 04:10:43;;;;;;;;;;;1.30;99.90;;;;;;4999423;28;19925;-86
2021/12/09 04:13:09;;;;;;;;;;;1.30;99.90;;;;;;5014538;28;19968;-87
2021/12/09 04:15:44;;;;;;;;;;;1.30;99.90;;;;;;4998368;28;20369;-86
2021/12/09 04:18:21;;;;;;;;;;;1.30;99.90;;;;;;5000116;28;19925;-87
2021/12/09 04:20:47;;;;;;;;;;;1.30;99.90;;;;;;5019271;28;19925;-87
2021/12/09 04:23:12;;;;;;;;;;;1.30;99.90;;;;;;5002009;28;19925;-86
2021/12/09 04:25:38;;;;;;;;;;;1.30;99.90;;;;;;5018488;28;19925;-86
2021/12/09 04:28:06;;;;;;;;;;;1.30;99.90;;;;;;5001841;28;19964;-86
2021/12/09 04:30:42;;;;;;;;;;;;;;;;;;;;;
2021/12/09 04:33:29;;;;;;;;;;;1.20;99.90;;;;;;5019171;28;20330;-87
2021/12/09 04:35:56;;;;;;;;;;;1.20;99.90;;;;;;5018724;28;20346;-86
2021/12/09 04:38:29;;;;;;;;;;;1.30;99.90;;;;;;5018236;28;20011;-86
2021/12/09 04:40:55;;;;;;;;;;;1.30;99.90;;;;;;5034082;28;19929;-86
2021/12/09 04:43:20;;;;;;;;;;;1.30;99.90;;;;;;5018265;28;20304;-86
2021/12/09 04:45:48;;;;;;;;;;;1.30;99.90;;;;;;5001731;28;19925;-87
2021/12/09 04:48:14;;;;;;;;;;;1.30;99.90;;;;;;5001999;28;19983;-86
2021/12/09 04:50:49;;;;;;;;;;;;;;;;;;;;;
2021/12/09 04:53:18;;;;;;;;;;;1.30;99.90;;;;;;5018750;28;19926;-86
2021/12/09 04:55:43;;;;;;;;;;;1.30;99.90;;;;;;5017990;28;19979;-86
2021/12/09 04:58:11;;;;;;;;;;;1.30;99.90;;;;;;5001588;28;20324;-86
2021/12/09 05:00:42;;;;;;;;;;;1.30;99.90;;;;;;5018477;28;19925;-86
2021/12/09 05:03:12;;;;;;;;;;;1.30;99.90;;;;;;5002499;28;19925;-86
2021/12/09 05:05:50;;;;;;;;;;;1.20;99.90;;;;;;5002338;28;19925;-87
2021/12/09 05:08:19;;;;;;;;;;;1.30;99.90;;;;;;5002629;28;19929;-87
2021/12/09 05:13:41;;;;;;;;;;;1.30;99.90;;;;;;5021270;28;20263;-86
2021/12/09 05:16:12;;;;;;;;;;;1.20;99.90;;;;;;5001279;28;19932;-86
2021/12/09 05:18:38;;;;;;;;;;;1.20;99.90;;;;;;5018130;28;19925;-86
2021/12/09 05:21:09;;;;;;;;;;;1.20;99.90;;;;;;5000851;28;20020;-87
2021/12/09 05:23:37;;;;;;;;;;;1.20;99.90;;;;;;5018337;28;20350;-86
2021/12/09 05:29:40;;;;;;;;;;;1.10;99.90;;;;;;5018541;28;19932;-87
2021/12/09 05:32:16;;;;;;;;;;;1.10;99.90;;;;;;5017453;28;19925;-92
2021/12/09 05:34:44;;;;;;;;;;;1.20;99.90;;;;;;5002026;28;19925;-87
2021/12/09 05:37:11;;;;;;;;;;;1.10;99.90;;;;;;5016856;28;19925;-87
2021/12/09 05:39:47;;;;;;;;;;;1.10;99.90;;;;;;5017600;28;19932;-86
2021/12/09 05:42:26;;;;;;;;;;;1.20;99.90;;;;;;5001769;28;19972;-86
2021/12/09 05:44:52;;;;;;;;;;;1.20;99.90;;;;;;5002235;28;19933;-86
2021/12/09 05:47:25;;;;;;;;;;;1.10;99.90;;;;;;5000625;28;19925;-87
2021/12/09 05:49:55;;;;;;;;;;;1.10;99.90;;;;;;5002085;28;19925;-86
2021/12/09 05:52:29;;;;;;;;;;;1.20;99.90;;;;;;5000354;28;19925;-87
2021/12/09 05:55:10;;;;;;;;;;;;;;;;;;;;;
2021/12/09 05:57:41;;;;;;;;;;;1.20;99.90;;;;;;5018489;28;20635;-87
2021/12/09 06:00:35;;;;;;;;;;;1.20;99.90;;;;;;5016362;28;19925;-87
2021/12/09 06:03:21;;;;;;;;;;;1.20;99.90;;;;;;5017208;28;20052;-87
2021/12/09 06:06:17;;;;;;;;;;;1.20;99.90;;;;;;5017372;28;20012;-88
2021/12/09 06:09:01;;;;;;;;;;;;;;;;;;;;;
2021/12/09 06:12:05;;;;;;;;;;;1.20;99.90;;;;;;5019078;28;19929;-87
2021/12/09 06:14:33;;;;;;;;;;;1.20;99.90;;;;;;5016537;28;19932;-87
2021/12/09 06:16:59;;;;;;;;;;;1.10;99.90;;;;;;5017026;28;19925;-87
2021/12/09 06:19:27;;;;;;;;;;;1.10;99.90;;;;;;5000074;28;19931;-86
2021/12/09 06:21:53;;;;;;;;;;;1.10;99.90;;;;;;5000338;28;19992;-86
2021/12/09 06:24:30;;;;;;;;;;;1.10;99.90;;;;;;4999535;28;19968;-88
2021/12/09 06:27:03;;;;;;;;;;;1.10;99.90;;;;;;5016476;28;19925;-87
2021/12/09 06:29:32;;;;;;;;;;;1.10;99.90;;;;;;5000928;28;20265;-87
2021/12/09 06:32:00;;;;;;;;;;;1.10;99.90;;;;;;5000370;28;19932;-87
2021/12/09 06:34:31;;;;;;;;;;;1.20;99.90;;;;;;5000019;28;19968;-86
2021/12/09 06:37:09;;;;;;;;;;;;;;;;;;;;;
2021/12/09 06:39:47;;;;;;;;;;;;;;;;;;;;;
2021/12/09 06:42:21;;;;;;;;;;;1.10;99.90;;;;;;5017036;28;19929;-87
2021/12/09 06:44:54;;;;;;;;;;;1.00;99.90;;;;;;5000818;28;20020;-86
2021/12/09 06:47:22;;;;;;;;;;;1.00;99.90;;;;;;5015887;28;20334;-87
2021/12/09 06:49:57;;;;;;;;;;;1.00;99.90;;;;;;4999941;28;19925;-87
2021/12/09 06:52:32;;;;;;;;;;;;;;;;;;;;;
2021/12/09 06:55:08;;;;;;;;;;;;;;;;;;;;;
2021/12/09 06:57:38;;;;;;;;;;;0.90;99.90;;;;;;5017114;28;20390;-87
2021/12/09 07:03:03;;;;;;;;;;;0.80;99.90;;;;;;5005389;28;20011;-88
2021/12/09 07:05:39;;;;;;;;;;;0.80;99.90;;;;;;4999700;28;19933;-87
2021/12/09 07:08:05;;;;;;;;;;;0.80;99.90;;;;;;5017764;28;19984;-86
2021/12/09 07:10:35;;;;;;;;;;;0.90;99.90;;;;;;4999030;28;19925;-90
2021/12/09 07:30:28;;;;;;;;;;;0.80;99.90;;;;;;5032358;28;19947;-89
2021/12/09 07:33:12;;;;;;;;;;;;;;;;;;;;;
2021/12/09 07:36:09;;;;;;;;;;;;;;;;;;;;;
2021/12/09 07:42:15;;;;;;;;;;;0.70;99.90;;;;;;5018552;28;19925;-87
2021/12/09 07:45:12;;;;;;;;;;;0.70;99.90;;;;;;5002291;28;19925;-86
2021/12/09 07:47:40;;;;;;;;;;;0.70;99.90;;;;;;5039259;28;19925;-88
2021/12/09 07:50:40;;;;;;;;;;;;;;;;;;;;;
2021/12/09 07:53:08;;;;;;;;;;;0.70;99.90;;;;;;5043249;28;19924;-88
2021/12/09 07:55:37;;;;;;;;;;;0.70;99.90;;;;;;5019182;28;20301;-89
2021/12/09 07:58:17;;;;;;;;;;;0.70;99.90;;;;;;5005618;28;19926;-89
2021/12/09 08:00:55;;;;;;;;;;;0.60;99.90;;;;;;5003010;28;19925;-89
2021/12/09 08:03:21;;;;;;;;;;;0.70;99.90;;;;;;5019176;28;20196;-90
2021/12/09 08:05:49;;;;;;;;;;;0.60;99.90;;;;;;5019663;28;19932;-88
2021/12/09 08:08:20;;;;;;;;;;;0.70;99.90;;;;;;5002739;28;19932;-89
2021/12/09 08:11:13;;;;;;;;;;;0.80;99.90;;;;;;5003671;28;19991;-89
2021/12/09 08:13:49;;;;;;;;;;;0.70;99.90;;;;;;5002553;28;19925;-88
2021/12/09 08:22:15;;;;;;;;;;;0.80;99.90;;;;;;5006142;28;19925;-92
2021/12/09 08:25:14;;;;;;;;;;;;;;;;;;;;;
2021/12/09 08:27:48;;;;;;;;;;;0.80;99.90;;;;;;5034880;28;20338;-90
2021/12/09 08:30:31;;;;;;;;;;;0.80;99.90;;;;;;5004032;28;19925;-91
2021/12/09 08:33:05;;;;;;;;;;;0.80;99.90;;;;;;5003953;28;19925;-91
2021/12/09 08:35:53;;;;;;;;;;;0.80;99.90;;;;;;5003136;28;19940;-90
2021/12/09 08:38:39;;;;;;;;;;;0.80;99.90;;;;;;5034974;28;20344;-90
2021/12/09 08:41:24;;;;;;;;;;;0.90;99.90;;;;;;5036551;28;19925;-91
2021/12/09 08:44:06;;;;;;;;;;;0.90;99.90;;;;;;5003088;28;20365;-91
2021/12/09 08:46:52;;;;;;;;;;;0.90;99.90;;;;;;5018644;28;20014;-90
2021/12/09 08:49:33;;;;;;;;;;;;;;;;;;;;;
2021/12/09 08:52:05;;;;;;;;;;;1.00;99.90;;;;;;5020818;28;19925;-90
2021/12/09 08:55:17;;;;;;;;;;;0.90;99.90;;;;;;5002966;28;19925;-91
2021/12/09 08:57:49;;;;;;;;;;;1.00;99.90;;;;;;5034199;28;19925;-90
2021/12/09 09:00:33;;;;;;;;;;;1.10;99.90;;;;;;5019616;28;20289;-92
2021/12/09 09:03:16;;;;;;;;;;;1.10;99.90;;;;;;5020840;28;20266;-91
2021/12/09 09:08:36;;;;;;;;;;;1.20;99.90;;;;;;5021437;28;19932;-90
2021/12/09 09:11:48;;;;;;;;;;;1.20;99.90;;;;;;5004475;28;20361;-92
2021/12/09 09:15:05;;;;;;;;;;;;;;;;;;;;;
2021/12/09 09:17:41;;;;;;;;;;;;;;;;;;;;;
2021/12/09 09:20:12;;;;;;;;;;;1.30;99.90;;;;;;5019672;28;19925;-90
2021/12/09 09:23:02;;;;;;;;;;;;;;;;;;;;;
2021/12/09 09:26:02;;;;;;;;;;;1.40;99.90;;;;;;5020704;28;19925;-89
2021/12/09 09:28:52;;;;;;;;;;;;;;;;;;;;;
2021/12/09 09:31:44;;;;;;;;;;;;;;;;;;;;;
2021/12/09 09:34:27;;;;;;;;;;;;;;;;;;;;;
2021/12/09 09:37:35;;;;;;;;;;;;;;;;;;;;;
2021/12/09 09:43:41;;;;;;;;;;;;;;;;;;;;;
2021/12/09 09:49:11;;;;;;;;;;;1.70;99.90;;;;;;5006000;28;19926;-90
2021/12/09 09:51:40;;;;;;;;;;;1.70;99.90;;;;;;5017805;28;19925;-89
2021/12/09 09:54:27;;;;;;;;;;;;;;;;;;;;;
2021/12/09 09:57:02;;;;;;;;;;;1.80;99.90;;;;;;5018303;28;20361;-90
2021/12/09 09:59:40;;;;;;;;;;;1.90;99.90;;;;;;5001762;28;20020;-89
2021/12/09 10:11:43;;;;;;;;;;;1.90;99.90;;;;;;5018579;28;19932;-91
2021/12/09 10:14:19;;;;;;;;;;;1.90;99.90;;;;;;5016697;28;19931;-91
2021/12/09 10:16:52;;;;;;;;;;;2.00;99.90;;;;;;5016532;28;19929;-89
2021/12/09 10:19:28;;;;;;;;;;;2.00;99.90;;;;;;5001859;28;20359;-87
2021/12/09 10:22:20;;;;;;;;;;;2.00;99.90;;;;;;5000555;28;19929;-88
2021/12/09 10:24:57;;;;;;;;;;;2.00;99.90;;;;;;5007326;28;19925;-90
2021/12/09 10:27:50;;;;;;;;;;;2.10;99.90;;;;;;5001755;28;19925;-88
2021/12/09 10:30:29;;;;;;;;;;;;;;;;;;;;;
2021/12/09 10:38:38;;;;;;;;;;;2.40;99.90;;;;;;5019119;28;19926;-89
2021/12/09 10:41:09;;;;;;;;;;;2.50;99.90;;;;;;4999485;28;20015;-89
2021/12/09 10:43:35;;;;;;;;;;;2.60;99.90;;;;;;5000232;28;19956;-88
2021/12/09 10:46:04;;;;;;;;;;;2.60;99.90;;;;;;4999644;28;20007;-89
2021/12/09 10:48:55;;;;;;;;;;;2.80;99.90;;;;;;5000216;28;20424;-89
2021/12/09 10:51:36;;;;;;;;;;;2.70;99.90;;;;;;5002367;28;20274;-89
2021/12/09 10:54:28;;;;;;;;;;;2.80;99.90;;;;;;5002386;28;19931;-89
2021/12/09 10:57:09;;;;;;;;;;;2.90;99.90;;;;;;5001819;28;19929;-90
2021/12/09 10:59:37;;;;;;;;;;;2.90;99.90;;;;;;5000391;28;19932;-89
2021/12/09 11:02:20;;;;;;;;;;;2.90;99.90;;;;;;5015635;28;20373;-89
2021/12/09 11:05:18;;;;;;;;;;;2.90;99.90;;;;;;5015528;28;19925;-89
2021/12/09 11:07:57;;;;;;;;;;;;;;;;;;;;;
2021/12/09 11:13:54;;;;;;;;;;;;;;;;;;;;;
2021/12/09 11:16:42;;;;;;;;;;;3.00;99.90;;;;;;5031999;28;19948;-88
2021/12/09 11:19:17;;;;;;;;;;;3.10;99.90;;;;;;5031562;28;20381;-89
2021/12/09 11:21:53;;;;;;;;;;;3.10;99.90;;;;;;4999779;28;19932;-88
2021/12/09 11:24:45;;;;;;;;;;;3.10;99.90;;;;;;5000362;28;19932;-89
2021/12/09 11:27:12;;;;;;;;;;;3.20;99.90;;;;;;4999973;28;20024;-89
2021/12/09 11:29:53;;;;;;;;;;;3.20;99.90;;;;;;5014678;28;19925;-89
2021/12/09 11:32:38;;;;;;;;;;;3.20;99.90;;;;;;5015200;28;20300;-89
2021/12/09 11:35:21;;;;;;;;;;;3.20;99.90;;;;;;5001536;28;19926;-89
2021/12/09 11:37:58;;;;;;;;;;;3.30;99.90;;;;;;5000573;28;19925;-89
2021/12/09 11:40:51;;;;;;;;;;;3.20;99.90;;;;;;5009452;28;20024;-90
2021/12/09 11:43:24;;;;;;;;;;;3.20;99.90;;;;;;5004702;28;20328;-90
2021/12/09 11:46:10;;;;;;;;;;;3.30;99.90;;;;;;5017795;28;19925;-86
2021/12/09 11:48:37;;;;;;;;;;;3.30;99.90;;;;;;5017335;28;19929;-86
2021/12/09 11:51:30;;;;;;;;;;;3.30;99.90;;;;;;4998910;28;19926;-89
2021/12/09 11:58:08;;;;;;;;;;;3.20;99.90;;;;;;4958768;28;19934;-91
2021/12/09 12:12:22;;;;;;;;;;;3.40;99.90;;;;;;5031709;28;19925;-87
2021/12/09 12:14:53;;;;;;;;;;;3.30;99.90;;;;;;5014991;28;19933;-86
2021/12/09 12:17:39;;;;;;;;;;;3.30;99.90;;;;;;5000230;28;20293;-86
2021/12/09 12:20:19;;;;;;;;;;;3.40;99.90;;;;;;5000801;28;19925;-88
2021/12/09 12:23:14;;;;;;;;;;;3.40;99.90;;;;;;5000727;28;20332;-88
2021/12/09 12:31:36;;;;;;;;;;;3.40;99.90;;;;;;5199728;23;20390;-90
2021/12/09 12:34:40;;;;;;;;;;;3.40;99.90;;;;;;4998520;28;19926;-87
2021/12/09 12:39:57;;;;;;;;;;;3.50;99.90;;;;;;4998158;28;19933;-93
2021/12/09 12:48:30;;;;;;;;;;;3.50;99.90;;;;;;5015260;28;20015;-87
2021/12/09 12:51:06;;;;;;;;;;;3.50;99.90;;;;;;4998433;28;20362;-83
2021/12/09 12:53:41;;;;;;;;;;;3.50;99.90;;;;;;4997968;28;19929;-84
2021/12/09 12:56:13;;;;;;;;;;;3.40;99.90;;;;;;5015082;28;20381;-84
2021/12/09 12:58:40;;;;;;;;;;;3.50;99.90;;;;;;4998761;28;19926;-82
2021/12/09 13:01:18;;;;;;;;;;;3.60;99.90;;;;;;5014990;28;19925;-83
2021/12/09 13:03:54;;;;;;;;;;;3.60;99.90;;;;;;4998680;28;19933;-89
2021/12/09 13:09:51;;;;;;;;;;;;;;;;;;;;;
2021/12/09 13:12:38;;;;;;;;;;;3.70;99.90;;;;;;4999939;28;19989;-86
2021/12/09 13:15:31;;;;;;;;;;;3.70;99.90;;;;;;4998818;28;19947;-86
2021/12/09 13:18:40;;;;;;;;;;;3.70;99.90;;;;;;4998504;28;19925;-90
2021/12/09 13:27:32;;;;;;;;;;;;;;;;;;;;;
2021/12/09 13:39:03;;;;;;;;;;;3.70;99.90;;;;;;5014805;28;19937;-92
2021/12/09 13:51:09;;;;;;;;;;;;;;;;;;;;;
2021/12/09 13:56:32;;;;;;;;;;;;;;;;;;;;;
2021/12/09 13:59:00;;;;;;;;;;;3.80;99.90;;;;;;4998652;28;19926;-91
2021/12/09 14:01:34;;;;;;;;;;;3.80;99.90;;;;;;5175292;23;19932;-89
2021/12/09 14:04:33;;;;;;;;;;;3.80;99.90;;;;;;4966036;28;19980;-90
2021/12/09 14:10:40;;;;;;;;;;;3.80;99.90;;;;;;5010227;28;19988;-90
2021/12/09 14:23:18;;;;;;;;;;;3.90;99.90;;;;;;5026914;23;19936;-93
2021/12/09 14:25:51;;;;;;;;;;;3.80;99.90;;;;;;4981162;28;20332;-94
2021/12/09 14:28:20;;;;;;;;;;;3.90;99.90;;;;;;4969262;28;19926;-87
2021/12/09 14:30:51;;;;;;;;;;;3.80;99.90;;;;;;4980088;28;19925;-86
2021/12/09 14:33:19;;;;;;;;;;;3.90;99.90;;;;;;4963178;28;19926;-86
2021/12/09 14:35:47;;;;;;;;;;;3.90;99.90;;;;;;4979410;28;20274;-86
2021/12/09 14:38:14;;;;;;;;;;;3.90;99.90;;;;;;4980130;28;19936;-86
2021/12/09 14:40:46;;;;;;;;;;;3.90;99.90;;;;;;4963296;28;19964;-86
2021/12/09 14:43:13;;;;;;;;;;;3.90;99.90;;;;;;4980531;28;19975;-86
2021/12/09 14:45:50;;;;;;;;;;;3.90;99.90;;;;;;4963225;28;19925;-86
2021/12/09 14:48:16;;;;;;;;;;;3.90;99.90;;;;;;4979932;28;19933;-86
2021/12/09 14:50:49;;;;;;;;;;;3.90;99.90;;;;;;4979890;28;19929;-86
2021/12/09 14:53:34;;;;;;;;;;;3.80;99.90;;;;;;4995866;28;19925;-86
2021/12/09 14:56:15;;;;;;;;;;;;;;;;;;;;;
2021/12/09 14:59:08;;;;;;;;;;;3.90;99.90;;;;;;4996310;28;19932;-92
2021/12/09 15:02:04;;;;;;;;;;;;;;;;;;;;;
2021/12/09 15:07:49;;;;;;;;;;;4.00;99.90;;;;;;4984497;28;19925;-90
2021/12/09 15:10:33;;;;;;;;;;;3.90;99.90;;;;;;4980077;28;19972;-90
2021/12/09 15:13:28;;;;;;;;;;;;;;;;;;;;;
2021/12/09 15:16:04;;;;;;;;;;;3.90;99.90;;;;;;4996075;28;20293;-90
2021/12/09 15:18:34;;;;;;;;;;;3.90;99.90;;;;;;4978915;28;20321;-90
2021/12/09 15:21:30;;;;;;;;;;;;;;;;;;;;;
2021/12/09 15:24:32;;;;;;;;;;;;;;;;;;;;;
2021/12/09 15:27:06;;;;;;;;;;;3.90;99.90;;;;;;5010376;28;19925;-92
2021/12/09 15:29:54;;;;;;;;;;;3.90;99.90;;;;;;4996363;28;20336;-92
2021/12/09 15:32:26;;;;;;;;;;;3.90;99.90;;;;;;4996576;28;19972;-93
2021/12/09 15:38:26;;;;;;;;;;;3.90;99.90;;;;;;5019538;28;19929;-91
2021/12/09 15:41:00;;;;;;;;;;;3.90;99.90;;;;;;5012965;28;20055;-90
2021/12/09 15:44:11;;;;;;;;;;;3.90;99.90;;;;;;4997450;28;19932;-93
2021/12/09 15:46:57;;;;;;;;;;;3.80;99.90;;;;;;4995420;28;19926;-88
2021/12/09 15:52:37;;;;;;;;;;;3.80;99.90;;;;;;5012265;28;19936;-89
2021/12/09 15:55:24;;;;;;;;;;;3.90;99.90;;;;;;4996302;28;19976;-89
2021/12/09 16:01:32;;;;;;;;;;;3.80;99.90;;;;;;5000614;28;20287;-89
2021/12/09 16:04:03;;;;;;;;;;;3.90;99.90;;;;;;5012078;28;19969;-89
2021/12/09 16:06:44;;;;;;;;;;;3.80;99.90;;;;;;4995818;28;20013;-89
2021/12/09 16:09:42;;;;;;;;;;;;;;;;;;;;;
2021/12/09 16:12:24;;;;;;;;;;;;;;;;;;;;;
2021/12/09 16:17:57;;;;;;;;;;;;;;;;;;;;;
2021/12/09 16:27:37;;;;;;;;;;;3.90;99.90;;;;;;5028266;28;19929;-88
2021/12/09 16:30:47;;;;;;;;;;;3.80;99.90;;;;;;5001539;28;20391;-88
2021/12/09 16:36:58;;;;;;;;;;;3.90;99.90;;;;;;5006809;28;20016;-89
2021/12/09 16:39:57;;;;;;;;;;;;;;;;;;;;;
2021/12/09 16:42:30;;;;;;;;;;;3.90;99.90;;;;;;5018497;28;19929;-89
2021/12/09 16:45:19;;;;;;;;;;;3.90;99.90;;;;;;5001553;28;19979;-87
2021/12/09 16:47:45;;;;;;;;;;;3.90;99.90;;;;;;5034654;28;20013;-85
2021/12/09 16:50:13;;;;;;;;;;;3.90;99.90;;;;;;5018218;28;19964;-86
2021/12/09 16:52:39;;;;;;;;;;;4.00;99.90;;;;;;5002009;28;19971;-85
2021/12/09 16:55:18;;;;;;;;;;;3.90;99.90;;;;;;5018667;28;19929;-86
2021/12/09 16:57:46;;;;;;;;;;;3.90;99.90;;;;;;5001585;28;19979;-87
2021/12/09 17:00:16;;;;;;;;;;;3.90;99.90;;;;;;5018062;28;19947;-87
2021/12/09 17:02:45;;;;;;;;;;;3.90;99.90;;;;;;5001827;28;19932;-86
2021/12/09 17:05:23;;;;;;;;;;;3.90;99.90;;;;;;5001435;28;19932;-86
2021/12/09 17:07:52;;;;;;;;;;;4.10;99.90;;;;;;5000994;28;19925;-87
2021/12/09 17:10:34;;;;;;;;;;;;;;;;;;;;;
2021/12/09 17:13:39;;;;;;;;;;;;;;;;;;;;;
2021/12/09 17:16:20;;;;;;;;;;;;;;;;;;;;;
2021/12/09 17:18:58;;;;;;;;;;;4.30;99.90;;;;;;5017745;28;19925;-89
2021/12/09 17:21:55;;;;;;;;;;;4.20;99.90;;;;;;5018260;28;19932;-90
2021/12/09 17:24:58;;;;;;;;;;;;;;;;;;;;;
2021/12/09 17:28:05;;;;;;;;;;;4.10;99.90;;;;;;4997900;28;19929;-96
2021/12/09 17:34:08;;;;;;;;;;;;;;;;;;;;;
2021/12/09 17:44:39;;;;;;;;;;;;;;;;;;;;;
2021/12/09 17:47:27;;;;;;;;;;;;;;;;;;;;;
2021/12/09 17:53:30;;;;;;;;;;;4.10;99.90;;;;;;4863289;29;20000;-88
2021/12/09 17:56:35;;;;;;;;;;;;;;;;;;;;;
2021/12/09 17:59:31;;;;;;;;;;;4.20;99.90;;;;;;4863786;29;19983;-87
2021/12/09 18:05:21;;;;;;;;;;;;;;;;;;;;;
2021/12/09 18:08:14;;;;;;;;;;;;;;;;;;;;;
2021/12/09 18:10:47;;;;;;;;;;;4.20;99.90;;;;;;5037574;28;19924;-88
2021/12/09 18:13:15;;;;;;;;;;;4.20;99.90;;;;;;5020205;28;19932;-86
2021/12/09 18:16:10;;;;;;;;;;;4.20;99.90;;;;;;5021290;28;20277;-88
2021/12/09 18:18:36;;;;;;;;;;;4.20;99.90;;;;;;5019989;28;19968;-87
2021/12/09 18:21:11;;;;;;;;;;;4.20;99.90;;;;;;5019724;28;19978;-87
2021/12/09 18:23:39;;;;;;;;;;;4.20;99.90;;;;;;5037423;28;20395;-86
2021/12/09 18:26:05;;;;;;;;;;;4.20;99.90;;;;;;5036268;28;20023;-86
2021/12/09 18:28:42;;;;;;;;;;;4.20;99.90;;;;;;5020293;28;19964;-90
2021/12/09 18:31:36;;;;;;;;;;;4.30;99.90;;;;;;5021304;28;19931;-89
2021/12/09 18:37:30;;;;;;;;;;;;;;;;;;;;;
2021/12/09 18:40:08;;;;;;;;;;;4.20;99.90;;;;;;5052696;28;19929;-89
2021/12/09 18:42:44;;;;;;;;;;;4.20;99.90;;;;;;5019507;28;20350;-88
2021/12/09 18:45:19;;;;;;;;;;;4.30;99.90;;;;;;5021066;28;19928;-86
2021/12/09 18:47:48;;;;;;;;;;;4.30;99.90;;;;;;5020552;28;19951;-87
2021/12/09 18:50:24;;;;;;;;;;;4.30;99.90;;;;;;5019030;28;19925;-86
2021/12/09 18:52:50;;;;;;;;;;;4.30;99.90;;;;;;5035490;28;19931;-87
2021/12/09 18:55:20;;;;;;;;;;;4.30;99.90;;;;;;5018491;28;19928;-86
2021/12/09 18:57:48;;;;;;;;;;;4.30;99.90;;;;;;5003087;28;19924;-87
2021/12/09 19:00:22;;;;;;;;;;;4.40;99.90;;;;;;5035899;28;19929;-88
2021/12/09 19:03:01;;;;;;;;;;;4.30;99.90;;;;;;5020881;28;19974;-87
2021/12/09 19:05:37;;;;;;;;;;;4.30;99.90;;;;;;5019599;28;19954;-86
2021/12/09 19:08:21;;;;;;;;;;;4.30;99.90;;;;;;5019247;28;20268;-86
2021/12/09 19:11:11;;;;;;;;;;;4.30;99.90;;;;;;5019241;28;19925;-86
2021/12/09 19:14:07;;;;;;;;;;;4.30;99.90;;;;;;5035289;28;19947;-87
2021/12/09 19:16:41;;;;;;;;;;;4.30;99.90;;;;;;5051828;28;20407;-87
2021/12/09 19:19:27;;;;;;;;;;;4.40;99.90;;;;;;5034964;28;20011;-87
2021/12/09 19:22:09;;;;;;;;;;;4.40;99.90;;;;;;5021999;28;19929;-88
2021/12/09 19:24:40;;;;;;;;;;;4.30;99.90;;;;;;5036862;28;19936;-87
2021/12/09 19:27:11;;;;;;;;;;;4.40;99.90;;;;;;5019663;28;19925;-88